Chang Sheng — V3PK — position and weather

sailwx.info

Track history (hours):
 
Tides and Currents Weather Stations Pressure Air Temp Water Temp Dewpoint Dewpoint Depression Visibility Wind Speed Wind Dir Waves Ship Positions

Chang Sheng

Last reported at 2014-Jul-18 09:16 UTC. Time now 2014-Jul-25 20:41 UTC.
Position N 34°35' E 134°53'.

Length 86 m; draft 5.6 m.

Type: Cargo ship. MMSI: 312161000.

Date/timePositionNaut miles runAvg speedWind from/ knotsBaromVisibWave heightAir tempDewpointWater temp
2014-Jul-18 09:16N 34°35' E 134°53'5 7.3
2014-Jul-18 08:33N 34°37' E 134°59'6 6.5
2014-Jul-18 07:33N 34°34' E 135°05'9 9.0
2014-Jul-18 06:33N 34°25' E 135°02'10 9.4
2014-Jul-18 05:29N 34°15' E 134°59'10 9.8
2014-Jul-18 04:30N 34°06' E 134°60'213 7.2
2014-Jul-16 23:03N 34°48' E 139°12'14 7.5
2014-Jul-16 21:14N 34°56' E 139°25'5 7.8
2014-Jul-16 20:33N 34°60' E 139°31'9 9.0
2014-Jul-16 19:33N 35°05' E 139°39'9 9.4
2014-Jul-16 18:33N 35°13' E 139°46'9 8.8
2014-Jul-16 17:33N 35°21' E 139°42'9 8.6
2014-Jul-16 16:33N 35°28' E 139°49'9 9.4
2014-Jul-16 15:33N 35°32' E 139°59'6 5.5
2014-Jul-16 14:33N 35°32' E 140°06'0 0.0
2014-Jul-16 13:33N 35°32' E 140°06'0 0.0
2014-Jul-16 12:27N 35°32' E 140°06'0 0.0
2014-Jul-16 11:30N 35°32' E 140°06'0 0.0
2014-Jul-16 10:33N 35°32' E 140°06'0 0.0
2014-Jul-16 09:33N 35°32' E 140°06'0 0.0
2014-Jul-16 08:33N 35°32' E 140°06'0 0.0
2014-Jul-16 07:30N 35°32' E 140°06'0 0.0
2014-Jul-16 06:27N 35°32' E 140°06'0 0.0
2014-Jul-16 05:33N 35°32' E 140°06'0 0.0
2014-Jul-16 04:33N 35°32' E 140°06'0 0.0
2014-Jul-16 03:33N 35°32' E 140°06'0 0.0
2014-Jul-16 02:33N 35°32' E 140°06'0 0.0
2014-Jul-16 01:33N 35°32' E 140°06'0 0.0
2014-Jul-16 00:27N 35°32' E 140°06'0 0.0
2014-Jul-15 23:33N 35°32' E 140°06'0 0.0
2014-Jul-15 22:33N 35°32' E 140°06'0 0.0
2014-Jul-15 21:33N 35°32' E 140°06'0 0.0
2014-Jul-15 20:33N 35°32' E 140°06'0 0.0
2014-Jul-15 19:33N 35°32' E 140°06'0 0.0
2014-Jul-15 18:33N 35°32' E 140°06'0 0.0
2014-Jul-15 17:33N 35°32' E 140°06'0 0.0
2014-Jul-15 16:33N 35°32' E 140°06'0 0.0
2014-Jul-15 15:27N 35°32' E 140°06'0 0.0
2014-Jul-15 14:33N 35°32' E 140°06'0 0.0
2014-Jul-15 13:30N 35°32' E 140°06'0 0.0
2014-Jul-15 12:33N 35°32' E 140°06'0 0.0
2014-Jul-15 11:18N 35°32' E 140°06'0 0.0
2014-Jul-15 10:30N 35°32' E 140°06'0 0.0
2014-Jul-15 09:33N 35°32' E 140°06'0 0.0
2014-Jul-15 08:33N 35°32' E 140°06'0 0.1
2014-Jul-15 07:33N 35°32' E 140°06'6 5.7
2014-Jul-15 06:33N 35°32' E 139°59'1010.2
2014-Jul-15 05:33N 35°26' E 139°49'4 3.7
2014-Jul-15 04:32N 35°24' E 139°45'0 0.0
2014-Jul-15 03:29N 35°24' E 139°45'0 0.0
2014-Jul-15 02:32N 35°24' E 139°45'0 0.0
2014-Jul-15 01:32N 35°24' E 139°45'0 0.0
2014-Jul-15 00:32N 35°24' E 139°45'0 0.0
2014-Jul-14 23:32N 35°24' E 139°45'0 0.0
2014-Jul-14 22:32N 35°24' E 139°45'0 0.0
2014-Jul-14 21:32N 35°24' E 139°45'0 0.0
2014-Jul-14 20:32N 35°24' E 139°45'0 0.0
2014-Jul-14 19:32N 35°24' E 139°45'0 0.0
2014-Jul-14 18:32N 35°24' E 139°45'0 0.0
2014-Jul-14 17:32N 35°24' E 139°45'0 0.0
2014-Jul-14 16:32N 35°24' E 139°45'0 0.0
2014-Jul-14 15:32N 35°24' E 139°45'0 0.0
2014-Jul-14 14:32N 35°24' E 139°45'0 0.1
2014-Jul-14 13:32N 35°24' E 139°45'0 0.0
2014-Jul-14 12:32N 35°24' E 139°45'0 0.0
2014-Jul-14 11:32N 35°24' E 139°45'0 0.1
2014-Jul-14 10:32N 35°24' E 139°45'0 0.0
2014-Jul-14 09:32N 35°24' E 139°45'0 0.0
2014-Jul-14 08:32N 35°24' E 139°45'0 0.0
2014-Jul-14 07:29N 35°24' E 139°45'0 0.0
2014-Jul-14 06:32N 35°24' E 139°45'0 0.0
2014-Jul-14 05:32N 35°24' E 139°45'0 0.0
2014-Jul-14 04:32N 35°24' E 139°45'0 0.0
2014-Jul-14 03:32N 35°24' E 139°45'0 0.0
2014-Jul-14 02:32N 35°24' E 139°45'0 0.0
2014-Jul-14 01:32N 35°24' E 139°45'0 0.0
2014-Jul-14 00:32N 35°24' E 139°45'0 0.0
2014-Jul-13 23:32N 35°24' E 139°45'0 0.1
2014-Jul-13 22:32N 35°24' E 139°45'0 0.0
2014-Jul-13 21:33N 35°24' E 139°45'0 0.0
2014-Jul-13 20:34N 35°24' E 139°45'0 0.0
2014-Jul-13 19:30N 35°24' E 139°45'0 0.0
2014-Jul-13 18:26N 35°24' E 139°45'0 0.1
2014-Jul-13 17:33N 35°24' E 139°45'0 0.0
2014-Jul-13 16:33N 35°24' E 139°45'0 0.0
2014-Jul-13 15:20N 35°24' E 139°45'0 0.0
2014-Jul-13 14:33N 35°24' E 139°45'0 0.0
2014-Jul-13 13:33N 35°24' E 139°45'0 0.0
2014-Jul-13 12:31N 35°24' E 139°45'0 0.0
2014-Jul-13 11:34N 35°24' E 139°45'0 0.0
2014-Jul-13 10:33N 35°24' E 139°45'0 0.0
2014-Jul-13 09:31N 35°24' E 139°45'0 0.1
2014-Jul-13 08:32N 35°24' E 139°45'5 5.1
2014-Jul-13 07:33N 35°28' E 139°49'9 9.0
2014-Jul-13 06:33N 35°32' E 139°59'3 3.0
2014-Jul-13 05:31N 35°34' E 140°02'0 0.0
2014-Jul-13 04:19N 35°34' E 140°02'0 0.0
2014-Jul-13 03:34N 35°34' E 140°02'0 0.0
2014-Jul-13 02:31N 35°34' E 140°02'0 0.1
2014-Jul-13 01:28N 35°34' E 140°02'0 0.1
2014-Jul-13 00:31N 35°34' E 140°02'0 0.0
2014-Jul-12 23:31N 35°34' E 140°02'0 0.0
2014-Jul-12 22:28N 35°34' E 140°02'0 0.0
2014-Jul-12 21:28N 35°34' E 140°02'0 0.0
2014-Jul-12 20:31N 35°34' E 140°02'0 0.0
2014-Jul-12 19:07N 35°34' E 140°02'0 0.1
2014-Jul-12 18:28N 35°34' E 140°02'0 0.0
2014-Jul-12 17:34N 35°34' E 140°02'0 0.0
2014-Jul-12 16:31N 35°34' E 140°02'0 0.0
2014-Jul-12 15:34N 35°34' E 140°02'0 0.0
2014-Jul-12 14:31N 35°34' E 140°02'0 0.0
2014-Jul-12 13:31N 35°34' E 140°02'0 0.0
2014-Jul-12 12:31N 35°34' E 140°02'0 0.0
2014-Jul-12 11:31N 35°34' E 140°02'0 0.0
2014-Jul-12 10:31N 35°34' E 140°02'0 0.0
2014-Jul-12 09:28N 35°34' E 140°02'0 0.0
2014-Jul-12 08:31N 35°34' E 140°02'0 0.0
2014-Jul-12 07:31N 35°34' E 140°02'0 0.1
2014-Jul-12 06:34N 35°34' E 140°02'0 0.0
2014-Jul-12 05:34N 35°34' E 140°02'0 0.0
2014-Jul-12 04:19N 35°34' E 140°02'0 0.0
2014-Jul-12 03:31N 35°34' E 140°02'0 0.0
2014-Jul-12 02:31N 35°34' E 140°02'0 0.0
2014-Jul-12 01:31N 35°34' E 140°02'0 0.0
2014-Jul-12 00:31N 35°34' E 140°02'0 0.0
2014-Jul-11 23:34N 35°34' E 140°02'0 0.0
2014-Jul-11 22:28N 35°34' E 140°02'0 0.0
2014-Jul-11 21:31N 35°34' E 140°02'0 0.0
2014-Jul-11 20:31N 35°34' E 140°02'0 0.0
2014-Jul-11 19:34N 35°34' E 140°02'0 0.0
2014-Jul-11 18:28N 35°34' E 140°02'0 0.0
2014-Jul-11 17:28N 35°34' E 140°02'0 0.0
2014-Jul-11 16:28N 35°34' E 140°02'0 0.0
2014-Jul-11 15:22N 35°34' E 140°02'0 0.0
2014-Jul-11 14:28N 35°34' E 140°02'0 0.0
2014-Jul-11 13:31N 35°34' E 140°02'0 0.0
2014-Jul-11 12:25N 35°34' E 140°02'0 0.0
2014-Jul-11 11:25N 35°34' E 140°02'0 0.0
2014-Jul-11 10:34N 35°34' E 140°02'0 0.0
2014-Jul-11 09:34N 35°34' E 140°02'0 0.0
2014-Jul-11 08:31N 35°34' E 140°02'0 0.0
2014-Jul-11 07:25N 35°34' E 140°02'0 0.0
2014-Jul-11 06:31N 35°34' E 140°02'0 0.0
2014-Jul-11 05:34N 35°34' E 140°02'0 0.0
2014-Jul-11 04:28N 35°34' E 140°02'0 0.0
2014-Jul-11 03:31N 35°34' E 140°02'0 0.0
2014-Jul-11 02:28N 35°34' E 140°02'0 0.0
2014-Jul-11 01:19N 35°34' E 140°02'0 0.0
2014-Jul-11 00:28N 35°34' E 140°02'0 0.0
2014-Jul-10 23:34N 35°34' E 140°02'0 0.0
2014-Jul-10 22:21N 35°34' E 140°02'0 0.0
2014-Jul-10 21:32N 35°34' E 140°02'0 0.0
2014-Jul-10 20:32N 35°34' E 140°02'0 0.0
2014-Jul-10 19:31N 35°34' E 140°02'0 0.0
2014-Jul-10 18:33N 35°34' E 140°02'0 0.0
2014-Jul-10 17:28N 35°34' E 140°02'0 0.0
2014-Jul-10 16:32N 35°34' E 140°02'0 0.0
2014-Jul-10 15:32N 35°34' E 140°02'0 0.0
2014-Jul-10 14:34N 35°34' E 140°02'0 0.0
2014-Jul-10 13:28N 35°34' E 140°02'0 0.0
2014-Jul-10 12:31N 35°34' E 140°02'0 0.0
2014-Jul-10 11:31N 35°34' E 140°02'0 0.0
2014-Jul-10 10:33N 35°34' E 140°02'0 0.0
2014-Jul-10 09:31N 35°34' E 140°02'0 0.0
2014-Jul-10 08:22N 35°34' E 140°02'0 0.0
2014-Jul-10 07:34N 35°34' E 140°02'3 3.2
2014-Jul-10 06:31N 35°32' E 140°06'0 0.0
2014-Jul-10 05:31N 35°32' E 140°06'0 0.0
2014-Jul-10 04:31N 35°32' E 140°06'0 0.0
2014-Jul-10 03:28N 35°32' E 140°06'0 0.0
2014-Jul-10 02:19N 35°32' E 140°06'0 0.0
2014-Jul-10 01:25N 35°32' E 140°06'0 0.0
2014-Jul-10 00:25N 35°32' E 140°06'0 0.0
2014-Jul-09 23:31N 35°32' E 140°06'0 0.0
2014-Jul-09 22:31N 35°32' E 140°06'0 0.0
2014-Jul-09 21:31N 35°32' E 140°06'0 0.0
2014-Jul-09 20:31N 35°32' E 140°06'0 0.0
2014-Jul-09 19:31N 35°32' E 140°06'0 0.0
2014-Jul-09 18:31N 35°32' E 140°06'0 0.0
2014-Jul-09 17:28N 35°32' E 140°06'0 0.0
2014-Jul-09 16:31N 35°32' E 140°06'0 0.0
2014-Jul-09 15:31N 35°32' E 140°06'0 0.0
2014-Jul-09 14:31N 35°32' E 140°06'0 0.0
2014-Jul-09 13:31N 35°32' E 140°06'0 0.0
2014-Jul-09 12:31N 35°32' E 140°06'0 0.0
2014-Jul-09 11:22N 35°32' E 140°06'0 0.0
2014-Jul-09 10:31N 35°32' E 140°06'0 0.0
2014-Jul-09 09:31N 35°32' E 140°06'0 0.0
2014-Jul-09 08:31N 35°32' E 140°06'0 0.0
2014-Jul-09 07:28N 35°32' E 140°06'0 0.0
2014-Jul-09 06:31N 35°32' E 140°06'0 0.0
2014-Jul-09 05:31N 35°32' E 140°06'0 0.0
2014-Jul-09 04:25N 35°32' E 140°06'0 0.0
2014-Jul-09 03:31N 35°32' E 140°06'0 0.0
2014-Jul-09 02:31N 35°32' E 140°06'0 0.0
2014-Jul-09 01:31N 35°32' E 140°06'0 0.0
2014-Jul-09 00:31N 35°32' E 140°06'0 0.0
2014-Jul-08 23:31N 35°32' E 140°06'0 0.0
2014-Jul-08 22:31N 35°32' E 140°06'0 0.0
2014-Jul-08 21:28N 35°32' E 140°06'0 0.0
2014-Jul-08 20:31N 35°32' E 140°06'0 0.0
2014-Jul-08 19:31N 35°32' E 140°06'0 0.0
2014-Jul-08 18:28N 35°32' E 140°06'0 0.0
2014-Jul-08 17:31N 35°32' E 140°06'0 0.0
2014-Jul-08 16:31N 35°32' E 140°06'0 0.0
2014-Jul-08 15:28N 35°32' E 140°06'0 0.0
2014-Jul-08 14:31N 35°32' E 140°06'0 0.0
2014-Jul-08 13:31N 35°32' E 140°06'0 0.0
2014-Jul-08 12:26N 35°32' E 140°06'1 1.3
2014-Jul-08 11:33N 35°33' E 140°05'2 2.1
2014-Jul-08 10:31N 35°34' E 140°02'0 0.0
2014-Jul-08 09:31N 35°34' E 140°02'  
Track history (hours):
 
Tides and Currents Weather Stations Pressure Air Temp Water Temp Dewpoint Dewpoint Depression Visibility Wind Speed Wind Dir Waves Ship Positions

Chang Sheng

Last reported at 2014-Jul-18 09:16 UTC. Time now 2014-Jul-25 20:41 UTC.
Position N 34°35' E 134°53'.

Length 86 m; draft 5.6 m.

Type: Cargo ship. MMSI: 312161000.

Date/timePositionNaut miles runAvg speedWind from/ knotsBaromVisibWave heightAir tempDewpointWater temp
2014-Jul-18 09:16N 34°35' E 134°53'5 7.3
2014-Jul-18 08:33N 34°37' E 134°59'6 6.5
2014-Jul-18 07:33N 34°34' E 135°05'9 9.0
2014-Jul-18 06:33N 34°25' E 135°02'10 9.4
2014-Jul-18 05:29N 34°15' E 134°59'10 9.8
2014-Jul-18 04:30N 34°06' E 134°60'213 7.2
2014-Jul-16 23:03N 34°48' E 139°12'14 7.5
2014-Jul-16 21:14N 34°56' E 139°25'5 7.8
2014-Jul-16 20:33N 34°60' E 139°31'9 9.0
2014-Jul-16 19:33N 35°05' E 139°39'9 9.4
2014-Jul-16 18:33N 35°13' E 139°46'9 8.8
2014-Jul-16 17:33N 35°21' E 139°42'9 8.6
2014-Jul-16 16:33N 35°28' E 139°49'9 9.4
2014-Jul-16 15:33N 35°32' E 139°59'6 5.5
2014-Jul-16 14:33N 35°32' E 140°06'0 0.0
2014-Jul-16 13:33N 35°32' E 140°06'0 0.0
2014-Jul-16 12:27N 35°32' E 140°06'0 0.0
2014-Jul-16 11:30N 35°32' E 140°06'0 0.0
2014-Jul-16 10:33N 35°32' E 140°06'0 0.0
2014-Jul-16 09:33N 35°32' E 140°06'0 0.0
2014-Jul-16 08:33N 35°32' E 140°06'0 0.0
2014-Jul-16 07:30N 35°32' E 140°06'0 0.0
2014-Jul-16 06:27N 35°32' E 140°06'0 0.0
2014-Jul-16 05:33N 35°32' E 140°06'0 0.0
2014-Jul-16 04:33N 35°32' E 140°06'0 0.0
2014-Jul-16 03:33N 35°32' E 140°06'0 0.0
2014-Jul-16 02:33N 35°32' E 140°06'0 0.0
2014-Jul-16 01:33N 35°32' E 140°06'0 0.0
2014-Jul-16 00:27N 35°32' E 140°06'0 0.0
2014-Jul-15 23:33N 35°32' E 140°06'0 0.0
2014-Jul-15 22:33N 35°32' E 140°06'0 0.0
2014-Jul-15 21:33N 35°32' E 140°06'0 0.0
2014-Jul-15 20:33N 35°32' E 140°06'0 0.0
2014-Jul-15 19:33N 35°32' E 140°06'0 0.0
2014-Jul-15 18:33N 35°32' E 140°06'0 0.0
2014-Jul-15 17:33N 35°32' E 140°06'0 0.0
2014-Jul-15 16:33N 35°32' E 140°06'0 0.0
2014-Jul-15 15:27N 35°32' E 140°06'0 0.0
2014-Jul-15 14:33N 35°32' E 140°06'0 0.0
2014-Jul-15 13:30N 35°32' E 140°06'0 0.0
2014-Jul-15 12:33N 35°32' E 140°06'0 0.0
2014-Jul-15 11:18N 35°32' E 140°06'0 0.0
2014-Jul-15 10:30N 35°32' E 140°06'0 0.0
2014-Jul-15 09:33N 35°32' E 140°06'0 0.0
2014-Jul-15 08:33N 35°32' E 140°06'0 0.1
2014-Jul-15 07:33N 35°32' E 140°06'6 5.7
2014-Jul-15 06:33N 35°32' E 139°59'1010.2
2014-Jul-15 05:33N 35°26' E 139°49'4 3.7
2014-Jul-15 04:32N 35°24' E 139°45'0 0.0
2014-Jul-15 03:29N 35°24' E 139°45'0 0.0
2014-Jul-15 02:32N 35°24' E 139°45'0 0.0
2014-Jul-15 01:32N 35°24' E 139°45'0 0.0
2014-Jul-15 00:32N 35°24' E 139°45'0 0.0
2014-Jul-14 23:32N 35°24' E 139°45'0 0.0
2014-Jul-14 22:32N 35°24' E 139°45'0 0.0
2014-Jul-14 21:32N 35°24' E 139°45'0 0.0
2014-Jul-14 20:32N 35°24' E 139°45'0 0.0
2014-Jul-14 19:32N 35°24' E 139°45'0 0.0
2014-Jul-14 18:32N 35°24' E 139°45'0 0.0
2014-Jul-14 17:32N 35°24' E 139°45'0 0.0
2014-Jul-14 16:32N 35°24' E 139°45'0 0.0
2014-Jul-14 15:32N 35°24' E 139°45'0 0.0
2014-Jul-14 14:32N 35°24' E 139°45'0 0.1
2014-Jul-14 13:32N 35°24' E 139°45'0 0.0
2014-Jul-14 12:32N 35°24' E 139°45'0 0.0
2014-Jul-14 11:32N 35°24' E 139°45'0 0.1
2014-Jul-14 10:32N 35°24' E 139°45'0 0.0
2014-Jul-14 09:32N 35°24' E 139°45'0 0.0
2014-Jul-14 08:32N 35°24' E 139°45'0 0.0
2014-Jul-14 07:29N 35°24' E 139°45'0 0.0
2014-Jul-14 06:32N 35°24' E 139°45'0 0.0
2014-Jul-14 05:32N 35°24' E 139°45'0 0.0
2014-Jul-14 04:32N 35°24' E 139°45'0 0.0
2014-Jul-14 03:32N 35°24' E 139°45'0 0.0
2014-Jul-14 02:32N 35°24' E 139°45'0 0.0
2014-Jul-14 01:32N 35°24' E 139°45'0 0.0
2014-Jul-14 00:32N 35°24' E 139°45'0 0.0
2014-Jul-13 23:32N 35°24' E 139°45'0 0.1
2014-Jul-13 22:32N 35°24' E 139°45'0 0.0
2014-Jul-13 21:33N 35°24' E 139°45'0 0.0
2014-Jul-13 20:34N 35°24' E 139°45'0 0.0
2014-Jul-13 19:30N 35°24' E 139°45'0 0.0
2014-Jul-13 18:26N 35°24' E 139°45'0 0.1
2014-Jul-13 17:33N 35°24' E 139°45'0 0.0
2014-Jul-13 16:33N 35°24' E 139°45'0 0.0
2014-Jul-13 15:20N 35°24' E 139°45'0 0.0
2014-Jul-13 14:33N 35°24' E 139°45'0 0.0
2014-Jul-13 13:33N 35°24' E 139°45'0 0.0
2014-Jul-13 12:31N 35°24' E 139°45'0 0.0
2014-Jul-13 11:34N 35°24' E 139°45'0 0.0
2014-Jul-13 10:33N 35°24' E 139°45'0 0.0
2014-Jul-13 09:31N 35°24' E 139°45'0 0.1
2014-Jul-13 08:32N 35°24' E 139°45'5 5.1
2014-Jul-13 07:33N 35°28' E 139°49'9 9.0
2014-Jul-13 06:33N 35°32' E 139°59'3 3.0
2014-Jul-13 05:31N 35°34' E 140°02'0 0.0
2014-Jul-13 04:19N 35°34' E 140°02'0 0.0
2014-Jul-13 03:34N 35°34' E 140°02'0 0.0
2014-Jul-13 02:31N 35°34' E 140°02'0 0.1
2014-Jul-13 01:28N 35°34' E 140°02'0 0.1
2014-Jul-13 00:31N 35°34' E 140°02'0 0.0
2014-Jul-12 23:31N 35°34' E 140°02'0 0.0
2014-Jul-12 22:28N 35°34' E 140°02'0 0.0
2014-Jul-12 21:28N 35°34' E 140°02'0 0.0
2014-Jul-12 20:31N 35°34' E 140°02'0 0.0
2014-Jul-12 19:07N 35°34' E 140°02'0 0.1
2014-Jul-12 18:28N 35°34' E 140°02'0 0.0
2014-Jul-12 17:34N 35°34' E 140°02'0 0.0
2014-Jul-12 16:31N 35°34' E 140°02'0 0.0
2014-Jul-12 15:34N 35°34' E 140°02'0 0.0
2014-Jul-12 14:31N 35°34' E 140°02'0 0.0
2014-Jul-12 13:31N 35°34' E 140°02'0 0.0
2014-Jul-12 12:31N 35°34' E 140°02'0 0.0
2014-Jul-12 11:31N 35°34' E 140°02'0 0.0
2014-Jul-12 10:31N 35°34' E 140°02'0 0.0
2014-Jul-12 09:28N 35°34' E 140°02'0 0.0
2014-Jul-12 08:31N 35°34' E 140°02'0 0.0
2014-Jul-12 07:31N 35°34' E 140°02'0 0.1
2014-Jul-12 06:34N 35°34' E 140°02'0 0.0
2014-Jul-12 05:34N 35°34' E 140°02'0 0.0
2014-Jul-12 04:19N 35°34' E 140°02'0 0.0
2014-Jul-12 03:31N 35°34' E 140°02'0 0.0
2014-Jul-12 02:31N 35°34' E 140°02'0 0.0
2014-Jul-12 01:31N 35°34' E 140°02'0 0.0
2014-Jul-12 00:31N 35°34' E 140°02'0 0.0
2014-Jul-11 23:34N 35°34' E 140°02'0 0.0
2014-Jul-11 22:28N 35°34' E 140°02'0 0.0
2014-Jul-11 21:31N 35°34' E 140°02'0 0.0
2014-Jul-11 20:31N 35°34' E 140°02'0 0.0
2014-Jul-11 19:34N 35°34' E 140°02'0 0.0
2014-Jul-11 18:28N 35°34' E 140°02'0 0.0
2014-Jul-11 17:28N 35°34' E 140°02'0 0.0
2014-Jul-11 16:28N 35°34' E 140°02'0 0.0
2014-Jul-11 15:22N 35°34' E 140°02'0 0.0
2014-Jul-11 14:28N 35°34' E 140°02'0 0.0
2014-Jul-11 13:31N 35°34' E 140°02'0 0.0
2014-Jul-11 12:25N 35°34' E 140°02'0 0.0
2014-Jul-11 11:25N 35°34' E 140°02'0 0.0
2014-Jul-11 10:34N 35°34' E 140°02'0 0.0
2014-Jul-11 09:34N 35°34' E 140°02'0 0.0
2014-Jul-11 08:31N 35°34' E 140°02'0 0.0
2014-Jul-11 07:25N 35°34' E 140°02'0 0.0
2014-Jul-11 06:31N 35°34' E 140°02'0 0.0
2014-Jul-11 05:34N 35°34' E 140°02'0 0.0
2014-Jul-11 04:28N 35°34' E 140°02'0 0.0
2014-Jul-11 03:31N 35°34' E 140°02'0 0.0
2014-Jul-11 02:28N 35°34' E 140°02'0 0.0
2014-Jul-11 01:19N 35°34' E 140°02'0 0.0
2014-Jul-11 00:28N 35°34' E 140°02'0 0.0
2014-Jul-10 23:34N 35°34' E 140°02'0 0.0
2014-Jul-10 22:21N 35°34' E 140°02'0 0.0
2014-Jul-10 21:32N 35°34' E 140°02'0 0.0
2014-Jul-10 20:32N 35°34' E 140°02'0 0.0
2014-Jul-10 19:31N 35°34' E 140°02'0 0.0
2014-Jul-10 18:33N 35°34' E 140°02'0 0.0
2014-Jul-10 17:28N 35°34' E 140°02'0 0.0
2014-Jul-10 16:32N 35°34' E 140°02'0 0.0
2014-Jul-10 15:32N 35°34' E 140°02'0 0.0
2014-Jul-10 14:34N 35°34' E 140°02'0 0.0
2014-Jul-10 13:28N 35°34' E 140°02'0 0.0
2014-Jul-10 12:31N 35°34' E 140°02'0 0.0
2014-Jul-10 11:31N 35°34' E 140°02'0 0.0
2014-Jul-10 10:33N 35°34' E 140°02'0 0.0
2014-Jul-10 09:31N 35°34' E 140°02'0 0.0
2014-Jul-10 08:22N 35°34' E 140°02'0 0.0
2014-Jul-10 07:34N 35°34' E 140°02'3 3.2
2014-Jul-10 06:31N 35°32' E 140°06'0 0.0
2014-Jul-10 05:31N 35°32' E 140°06'0 0.0
2014-Jul-10 04:31N 35°32' E 140°06'0 0.0
2014-Jul-10 03:28N 35°32' E 140°06'0 0.0
2014-Jul-10 02:19N 35°32' E 140°06'0 0.0
2014-Jul-10 01:25N 35°32' E 140°06'0 0.0
2014-Jul-10 00:25N 35°32' E 140°06'0 0.0
2014-Jul-09 23:31N 35°32' E 140°06'0 0.0
2014-Jul-09 22:31N 35°32' E 140°06'0 0.0
2014-Jul-09 21:31N 35°32' E 140°06'0 0.0
2014-Jul-09 20:31N 35°32' E 140°06'0 0.0
2014-Jul-09 19:31N 35°32' E 140°06'0 0.0
2014-Jul-09 18:31N 35°32' E 140°06'0 0.0
2014-Jul-09 17:28N 35°32' E 140°06'0 0.0
2014-Jul-09 16:31N 35°32' E 140°06'0 0.0
2014-Jul-09 15:31N 35°32' E 140°06'0 0.0
2014-Jul-09 14:31N 35°32' E 140°06'0 0.0
2014-Jul-09 13:31N 35°32' E 140°06'0 0.0
2014-Jul-09 12:31N 35°32' E 140°06'0 0.0
2014-Jul-09 11:22N 35°32' E 140°06'0 0.0
2014-Jul-09 10:31N 35°32' E 140°06'0 0.0
2014-Jul-09 09:31N 35°32' E 140°06'0 0.0
2014-Jul-09 08:31N 35°32' E 140°06'0 0.0
2014-Jul-09 07:28N 35°32' E 140°06'0 0.0
2014-Jul-09 06:31N 35°32' E 140°06'0 0.0
2014-Jul-09 05:31N 35°32' E 140°06'0 0.0
2014-Jul-09 04:25N 35°32' E 140°06'0 0.0
2014-Jul-09 03:31N 35°32' E 140°06'0 0.0
2014-Jul-09 02:31N 35°32' E 140°06'0 0.0
2014-Jul-09 01:31N 35°32' E 140°06'0 0.0
2014-Jul-09 00:31N 35°32' E 140°06'0 0.0
2014-Jul-08 23:31N 35°32' E 140°06'0 0.0
2014-Jul-08 22:31N 35°32' E 140°06'0 0.0
2014-Jul-08 21:28N 35°32' E 140°06'0 0.0
2014-Jul-08 20:31N 35°32' E 140°06'0 0.0
2014-Jul-08 19:31N 35°32' E 140°06'0 0.0
2014-Jul-08 18:28N 35°32' E 140°06'0 0.0
2014-Jul-08 17:31N 35°32' E 140°06'0 0.0
2014-Jul-08 16:31N 35°32' E 140°06'0 0.0
2014-Jul-08 15:28N 35°32' E 140°06'0 0.0
2014-Jul-08 14:31N 35°32' E 140°06'0 0.0
2014-Jul-08 13:31N 35°32' E 140°06'0 0.0
2014-Jul-08 12:26N 35°32' E 140°06'1 1.3
2014-Jul-08 11:33N 35°33' E 140°05'2 2.1
2014-Jul-08 10:31N 35°34' E 140°02'0 0.0
2014-Jul-08 09:31N 35°34' E 140°02'  

Dump ship's entire track history